Weather at Shute Harbour Airport

Public forecast

Using degrees Celsius for public forecast. Weather courtesy of forecast.io.

Closest aviation weather report (METAR) to Shute Harbour Airport

Closest report is Hamilton Island Airport, 12.1 nm (22.4 km) ESE. Retrieved 2020/12/02 05:30 UTC (0 seconds ago):

YBHM 020530Z AUTO 09016KT 9999 // NCD 28/23 Q1012 RF000/0000

Closest aviation forecast (TAF) to Shute Harbour Airport

Closest forecast is Hamilton Island Airport, 12.1 nm (22.4 km) ESE. Retrieved 2020-12-02 00:00 UTC (5 hours ago):

TAF YBHM 012309Z 0200/0212 09014KT 9999 SCT030 FM020900 09012KT 9999 SCT015